Hauptseite
METAR-TAF:

METAR-TAF

Flughäfen :

Massena, New York, Vereinigte Staaten

Breite: 44-56-09N, Länge: 074-50-44W, Höhe: 66 m

Beobachtung

Neuester Wetterbericht von vor 20 Minuten, um 02:53 UTC
Windstille
Temperatur -16°C
Luftfeuchtigkeit 84%
Luftdruck 1036 hPa
Sichtweite: 16.1 km
Himmel klar

METAR: KMSS 170253Z AUTO 00000KT 10SM CLR M16/M18 A3058 RMK AO2 SLP368 T11561183 56007

Zeit: 22:13 (03:13 UTC)

Prognose

Neuester Wetterbericht von vor 3 Stunden und 41 Minuten, um 23:32 UTC
Gültige Prognose vom 17 um 00 UTC bis 17 um 24 UTC
Wind kt aus Nord
Sichtweite: 10 km
Himmel klar
Ab 17 um 1300 UTC
Wind 7 kt aus Ost/Nordost
Sichtweite: 10 km
Leicht bewölkt in der Höhe von 20000 ft

TAF: KMSS 162332Z 1700/1724 00000KT P6SM SKC FM171300 06007KT P6SM FEW200

Wetterbeobachtungen und Prognosen von mehr als 4000 Flughäfen (METAR und TAF Bericht).

Die verfügbaren Stationen werden durch gelbe und rote Markierungen auf der Karte dargestellt.

Führen Sie die Maus auf sie, um den Namen der Station zu sehen.

Darauf klicken, um die Beobachtung von Wetterbeobachtungen und Prognosen zu sehen.

Um die Karte zu ändern : klicken Sie auf den grünen Tasten mit einem schwarzen Kreuz Zum Vergrößern, auf den grünen Button mit einem Gedankenstrich zu verkleinern, oder auf die grünen Pfeile für benachbarte Karten.


METAR-TAF: